createdAt,value
2019-02-18T00:02:59.393Z,-0.20
2019-02-18T00:07:45.200Z,0.10
2019-02-18T00:12:31.110Z,-0.10
2019-02-18T00:17:17.136Z,-0.40
2019-02-18T00:22:03.066Z,-0.40
2019-02-18T00:26:48.880Z,-0.60
2019-02-18T00:31:34.809Z,-0.70
2019-02-18T00:36:20.644Z,-0.90
2019-02-18T00:41:06.690Z,-0.80
2019-02-18T00:45:52.551Z,-0.90
2019-02-18T00:50:38.427Z,-0.90
2019-02-18T00:55:24.206Z,-0.80
2019-02-18T01:00:11.191Z,-0.60
2019-02-18T01:04:57.262Z,-0.50
2019-02-18T01:09:43.252Z,-0.80
2019-02-18T01:14:29.078Z,-0.90
2019-02-18T01:19:15.879Z,-1.00
2019-02-18T01:24:01.791Z,-0.90
2019-02-18T01:28:47.682Z,-0.90
2019-02-18T01:33:33.462Z,-0.70
2019-02-18T01:38:19.386Z,-0.80
2019-02-18T01:43:05.351Z,-1.00
2019-02-18T01:47:51.036Z,-1.10
2019-02-18T01:52:36.832Z,-1.30
2019-02-18T01:57:22.605Z,-1.40
2019-02-18T02:02:08.634Z,-1.30
2019-02-18T02:06:54.398Z,-1.40
2019-02-18T02:11:40.192Z,-1.60
2019-02-18T02:16:25.935Z,-1.80
2019-02-18T02:21:11.840Z,-1.60
2019-02-18T02:25:57.780Z,-1.50
2019-02-18T02:30:43.653Z,-1.50
2019-02-18T02:35:29.407Z,-1.50
2019-02-18T02:40:15.161Z,-1.60
2019-02-18T02:45:00.954Z,-1.90
2019-02-18T02:49:46.775Z,-1.90
2019-02-18T02:54:32.683Z,-1.60
2019-02-18T02:59:18.459Z,-1.90
2019-02-18T03:04:04.171Z,-1.80
2019-02-18T03:08:50.103Z,-1.70
2019-02-18T03:13:35.931Z,-1.50
2019-02-18T03:18:21.693Z,-1.70
2019-02-18T03:23:07.582Z,-1.90
2019-02-18T03:28:31.336Z,-1.90
2019-02-18T03:33:20.457Z,-2.10
2019-02-18T03:38:06.421Z,-1.80
2019-02-18T03:42:52.208Z,-1.90
2019-02-18T03:47:38.225Z,-2.20
2019-02-18T03:52:23.991Z,-1.80
2019-02-18T03:57:09.872Z,-1.90
2019-02-18T04:01:55.847Z,-2.30
2019-02-18T04:06:41.811Z,-2.50
2019-02-18T04:11:27.618Z,-2.80
2019-02-18T04:16:13.359Z,-2.80
2019-02-18T04:20:59.189Z,-2.70
2019-02-18T04:25:44.929Z,-2.60
2019-02-18T04:30:30.688Z,-2.40
2019-02-18T04:35:16.486Z,-2.60
2019-02-18T04:40:02.221Z,-2.80
2019-02-18T04:44:48.126Z,-2.80
2019-02-18T04:49:33.845Z,-2.90
2019-02-18T04:54:19.673Z,-3.10
2019-02-18T04:59:05.567Z,-3.00
2019-02-18T05:03:51.345Z,-2.60
2019-02-18T05:08:37.098Z,-2.70
2019-02-18T05:13:22.937Z,-2.70
2019-02-18T05:18:08.718Z,-2.50
2019-02-18T05:22:54.596Z,-2.70
2019-02-18T05:27:40.362Z,-2.80
2019-02-18T05:32:26.430Z,-2.60
2019-02-18T05:37:12.232Z,-2.50
2019-02-18T05:41:58.360Z,-2.50
2019-02-18T05:46:44.155Z,-2.60
2019-02-18T05:51:30.041Z,-2.50
2019-02-18T05:56:15.863Z,-2.50
2019-02-18T06:01:01.802Z,-2.50
2019-02-18T06:05:47.681Z,-2.30
2019-02-18T06:10:33.464Z,-2.50
2019-02-18T06:15:19.252Z,-2.70
2019-02-18T06:20:05.608Z,-2.80
2019-02-18T06:24:51.532Z,-3.00
2019-02-18T06:29:37.470Z,-3.10
2019-02-18T06:34:23.253Z,-3.20
2019-02-18T06:39:09.126Z,-3.40
2019-02-18T06:43:54.977Z,-3.60
2019-02-18T06:48:53.365Z,-3.50
2019-02-18T06:53:39.172Z,-3.30
2019-02-18T06:58:33.430Z,-2.80
2019-02-18T07:03:30.079Z,-2.70
2019-02-18T07:08:22.424Z,-2.40
2019-02-18T07:13:08.186Z,-2.40
2019-02-18T07:17:53.949Z,-2.40
2019-02-18T07:22:39.917Z,-2.50
2019-02-18T07:27:25.996Z,-2.70
2019-02-18T07:32:11.777Z,-2.60
2019-02-18T07:36:57.641Z,-2.40
2019-02-18T07:41:43.459Z,-2.40
2019-02-18T07:46:29.297Z,-2.40
2019-02-18T07:51:15.032Z,-2.50
2019-02-18T07:56:00.770Z,-2.30
2019-02-18T08:00:46.622Z,-1.10
2019-02-18T08:05:32.498Z,0.00
2019-02-18T08:10:18.214Z,1.00
2019-02-18T08:15:04.130Z,1.70
2019-02-18T08:19:49.885Z,2.40
2019-02-18T08:24:35.653Z,2.40
2019-02-18T08:29:21.501Z,3.30
2019-02-18T08:34:07.352Z,4.30
2019-02-18T08:38:53.149Z,5.30
2019-02-18T08:43:38.892Z,6.10
2019-02-18T08:48:24.714Z,6.80
2019-02-18T08:53:10.557Z,7.00
2019-02-18T08:57:56.311Z,7.90
2019-02-18T09:02:42.102Z,8.80
2019-02-18T09:07:27.979Z,8.70
2019-02-18T09:12:13.687Z,8.60
2019-02-18T09:16:59.512Z,9.00
2019-02-18T09:21:46.050Z,9.90
2019-02-18T09:26:31.934Z,10.40
2019-02-18T09:31:20.690Z,10.00
2019-02-18T09:36:06.743Z,11.10
2019-02-18T09:40:52.512Z,12.60
2019-02-18T09:45:38.257Z,12.40
2019-02-18T09:50:24.001Z,13.00
2019-02-18T09:55:10.053Z,13.70
2019-02-18T09:59:55.817Z,13.90
2019-02-18T10:04:41.700Z,14.40
2019-02-18T10:09:27.462Z,13.80
2019-02-18T10:14:13.269Z,15.20
2019-02-18T10:18:59.028Z,16.00
2019-02-18T10:23:44.863Z,15.80
2019-02-18T10:28:30.635Z,16.30
2019-02-18T10:33:16.398Z,15.70
2019-02-18T10:38:02.191Z,15.60
2019-02-18T10:42:47.916Z,16.40
2019-02-18T10:47:33.841Z,17.60
2019-02-18T10:52:19.627Z,18.10
2019-02-18T10:57:05.396Z,19.30
2019-02-18T11:01:51.115Z,18.80
2019-02-18T11:06:36.881Z,19.60
2019-02-18T11:11:23.083Z,19.80
2019-02-18T11:16:08.908Z,20.10
2019-02-18T11:20:54.614Z,19.60
2019-02-18T11:25:40.631Z,20.00
2019-02-18T11:30:26.552Z,20.40
2019-02-18T11:35:12.865Z,19.30
2019-02-18T11:39:58.757Z,20.00
2019-02-18T11:44:44.583Z,19.70
2019-02-18T11:49:30.536Z,20.20
2019-02-18T11:54:16.666Z,19.80
2019-02-18T11:59:02.662Z,21.20
2019-02-18T12:03:48.522Z,20.10
2019-02-18T12:08:34.371Z,21.50
2019-02-18T12:13:20.325Z,22.10
2019-02-18T12:18:06.226Z,22.10
2019-02-18T12:22:52.173Z,21.70
2019-02-18T12:27:38.737Z,24.20
2019-02-18T12:32:24.485Z,24.70
2019-02-18T12:37:10.465Z,25.00
2019-02-18T12:41:56.228Z,25.60
2019-02-18T12:46:42.276Z,25.20
2019-02-18T12:51:28.098Z,25.00
2019-02-18T12:56:14.177Z,26.60
2019-02-18T13:01:00.660Z,25.20
2019-02-18T13:05:46.596Z,26.80
2019-02-18T13:10:34.840Z,26.80
2019-02-18T13:15:19.933Z,27.40
2019-02-18T13:20:06.186Z,28.30
2019-02-18T13:24:52.129Z,29.60
2019-02-18T13:29:37.919Z,28.40
2019-02-18T13:34:23.741Z,29.00
2019-02-18T13:39:10.034Z,26.10
2019-02-18T13:43:56.180Z,26.10
2019-02-18T13:48:42.291Z,23.90
2019-02-18T13:53:27.993Z,25.30
2019-02-18T13:58:14.449Z,28.10
2019-02-18T14:03:00.366Z,28.50
2019-02-18T14:07:46.273Z,28.80
2019-02-18T14:12:32.075Z,29.80
2019-02-18T14:17:18.081Z,29.00
2019-02-18T14:22:05.029Z,30.40
2019-02-18T14:26:50.803Z,30.40
2019-02-18T14:31:36.591Z,31.10
2019-02-18T14:36:22.464Z,29.10
2019-02-18T14:41:08.529Z,28.30
2019-02-18T14:45:54.799Z,27.40
2019-02-18T14:50:41.112Z,28.70
2019-02-18T14:55:26.980Z,29.00
2019-02-18T15:00:21.325Z,28.70
2019-02-18T15:05:07.168Z,28.60
2019-02-18T15:09:52.892Z,27.60
2019-02-18T15:14:39.091Z,26.90
2019-02-18T15:19:24.855Z,25.90
2019-02-18T15:24:10.979Z,26.30
2019-02-18T15:28:56.724Z,25.30
2019-02-18T15:33:42.636Z,26.00
2019-02-18T15:38:28.400Z,25.30
2019-02-18T15:43:14.872Z,25.50
2019-02-18T15:48:01.962Z,23.50
2019-02-18T15:52:48.089Z,22.90
2019-02-18T15:57:34.036Z,23.10
2019-02-18T16:02:20.038Z,22.80
2019-02-18T16:07:06.225Z,22.60
2019-02-18T16:11:51.988Z,22.60
2019-02-18T16:16:38.118Z,22.80
2019-02-18T16:21:24.059Z,19.30
2019-02-18T16:26:09.857Z,15.80
2019-02-18T16:30:55.826Z,13.20
2019-02-18T16:35:41.901Z,11.80
2019-02-18T16:40:27.992Z,10.90
2019-02-18T16:45:14.444Z,9.80
2019-02-18T16:50:00.253Z,9.10
2019-02-18T16:54:46.096Z,8.80
2019-02-18T16:59:31.975Z,8.50
2019-02-18T17:04:17.746Z,8.10
2019-02-18T17:09:05.493Z,7.90
2019-02-18T17:13:51.846Z,7.50
2019-02-18T17:18:37.774Z,7.50
2019-02-18T17:23:23.548Z,7.30
2019-02-18T17:28:09.505Z,7.00
2019-02-18T17:32:55.548Z,6.80
2019-02-18T17:37:41.793Z,6.70
2019-02-18T17:42:27.704Z,6.60
2019-02-18T17:47:13.894Z,6.20
2019-02-18T17:51:59.761Z,5.80
2019-02-18T17:56:45.980Z,5.70
2019-02-18T18:01:32.148Z,5.50
2019-02-18T18:06:18.296Z,5.40
2019-02-18T18:11:04.449Z,5.20
2019-02-18T18:15:52.101Z,5.10
2019-02-18T18:20:38.680Z,5.00
2019-02-18T18:25:24.901Z,4.90
2019-02-18T18:30:12.668Z,4.60
2019-02-18T18:34:59.125Z,4.50
2019-02-18T18:39:49.739Z,4.40
2019-02-18T18:44:36.147Z,4.20
2019-02-18T18:49:22.550Z,4.10
2019-02-18T18:54:08.646Z,4.00
2019-02-18T18:58:55.105Z,3.80
2019-02-18T19:03:41.349Z,3.80
2019-02-18T19:08:27.751Z,3.70
2019-02-18T19:13:13.806Z,3.50
2019-02-18T19:17:59.915Z,3.50
2019-02-18T19:22:45.927Z,3.60
2019-02-18T19:27:32.232Z,3.60
2019-02-18T19:32:18.777Z,3.60
2019-02-18T19:37:04.828Z,3.70
2019-02-18T19:41:50.840Z,3.50
2019-02-18T19:46:36.737Z,3.30
2019-02-18T19:51:22.746Z,3.20
2019-02-18T19:56:09.393Z,2.80
2019-02-18T20:00:55.582Z,2.50
2019-02-18T20:05:41.673Z,2.50
2019-02-18T20:10:28.405Z,2.70
2019-02-18T20:15:14.673Z,2.50
2019-02-18T20:20:00.753Z,2.40
2019-02-18T20:24:46.865Z,2.50
2019-02-18T20:29:32.809Z,2.30
2019-02-18T20:34:18.978Z,2.20
2019-02-18T20:39:07.892Z,2.20
2019-02-18T20:43:54.042Z,2.10
2019-02-18T20:48:40.197Z,2.00
2019-02-18T20:53:26.408Z,1.80
2019-02-18T20:58:12.410Z,1.60
2019-02-18T21:02:58.442Z,1.40
2019-02-18T21:07:44.358Z,1.60
2019-02-18T21:12:31.425Z,1.60
2019-02-18T21:17:17.471Z,1.80
2019-02-18T21:22:03.836Z,2.00
2019-02-18T21:26:49.946Z,1.70
2019-02-18T21:31:36.130Z,1.50
2019-02-18T21:36:22.381Z,1.40
2019-02-18T21:41:09.172Z,1.50
2019-02-18T21:45:55.431Z,1.30
2019-02-18T21:50:41.675Z,1.10
2019-02-18T21:55:28.775Z,1.00
2019-02-18T22:00:17.184Z,1.30
2019-02-18T22:05:03.473Z,1.30
2019-02-18T22:09:49.884Z,1.00
2019-02-18T22:14:36.414Z,1.10
2019-02-18T22:19:22.297Z,1.20
2019-02-18T22:24:08.088Z,1.00
2019-02-18T22:28:54.108Z,0.80
2019-02-18T22:33:39.856Z,0.70
2019-02-18T22:38:25.775Z,0.50
2019-02-18T22:43:11.511Z,0.20
2019-02-18T22:47:58.733Z,0.00
2019-02-18T22:52:44.568Z,0.10
2019-02-18T22:57:30.371Z,0.40
2019-02-18T23:02:16.538Z,0.20
2019-02-18T23:07:02.576Z,0.30
2019-02-18T23:11:48.541Z,0.40
2019-02-18T23:16:34.555Z,0.40
2019-02-18T23:21:20.892Z,0.20
2019-02-18T23:26:06.829Z,0.10
2019-02-18T23:30:52.662Z,0.00
2019-02-18T23:35:38.985Z,-0.20
2019-02-18T23:40:25.167Z,-0.30
2019-02-18T23:45:11.106Z,-0.30
2019-02-18T23:49:57.116Z,-0.50
2019-02-18T23:54:42.889Z,-0.60
2019-02-18T23:59:28.795Z,-0.40
